KASL/ASL METAR and TAF weather

Enter ICAO airport designator
Station Type Date Time Source
KASL METAR 2020/07/14 21:15 UTC NOAA

KASL 142115Z AUTO 18006KT 10SM CLR 34/23 A2993 RMK AO1 T03360231


Station Type Date Time Source
KASL Decoded METAR 2020/07/14 21:15 UTC NOAA

Station name not available
Jul 14, 2020 - 05:15 PM EDT / 2020.07.14 2115 UTC
Wind: from the S (180 degrees) at 7 MPH (6 KT):0
Visibility: 10 mile(s):0
Sky conditions: clear
Temperature: 92.5 F (33.6 C)
Heat index: 102.0 F (38.9 C):1
Dew Point: 73.6 F (23.1 C)
Relative Humidity: 54%
Pressure (altimeter): 29.93 in. Hg (1013 hPa)
ob: KASL 142115Z AUTO 18006KT 10SM CLR 34/23 A2993 RMK AO1 T03360231
cycle: 21

Station Type Date Time Source
KASL TAF UTC NOAA

Error!

Example: see airport list